Time;durP1;ratioP1;P1;durP2;ratioP2;P2;SDS_P1;SDS_P2;PMS_P1;PMS_P2;Temp;Humidity;BMP_temperature;BMP_pressure;BME280_temperature;BME280_humidity;BME280_pressure;Samples;Min_cycle;Max_cycle;Signal;HPM_P1;HPM_P2
2023/01/04 00:00:45;;;;;;;13.33;3.03;;;;;;;;;;5115706;28;20221;-94
2023/01/04 00:03:13;;;;;;;10.97;2.40;;;;;;;;;;5115214;28;20568;-93
2023/01/04 00:05:40;;;;;;;11.80;3.10;;;;;;;;;;5115444;28;20201;-93
2023/01/04 00:08:07;;;;;;;13.63;2.80;;;;;;;;;;5114785;28;20186;-94
2023/01/04 00:10:36;;;;;;;10.57;2.83;;;;;;;;;;5114288;28;20229;-93
2023/01/04 00:13:04;;;;;;;11.77;3.10;;;;;;;;;;5114833;28;20550;-94
2023/01/04 00:15:31;;;;;;;6.43;2.47;;;;;;;;;;5114568;28;20198;-95
2023/01/04 00:17:59;;;;;;;6.60;2.70;;;;;;;;;;5114489;28;20198;-93
2023/01/04 00:20:26;;;;;;;10.93;2.60;;;;;;;;;;5114354;28;20206;-93
2023/01/04 00:22:53;;;;;;;8.90;2.37;;;;;;;;;;5114586;28;20255;-94
2023/01/04 00:25:20;;;;;;;6.97;2.57;;;;;;;;;;5114385;28;20206;-92
2023/01/04 00:27:48;;;;;;;11.13;2.50;;;;;;;;;;5114236;28;20247;-93
2023/01/04 00:30:17;;;;;;;10.67;2.50;;;;;;;;;;5114873;28;20218;-93
2023/01/04 00:32:44;;;;;;;10.37;2.17;;;;;;;;;;5119058;28;20660;-93
2023/01/04 00:35:13;;;;;;;9.93;2.30;;;;;;;;;;5118107;28;20232;-93
2023/01/04 00:37:40;;;;;;;10.17;2.07;;;;;;;;;;5118608;28;20246;-92
2023/01/04 00:40:08;;;;;;;5.17;2.20;;;;;;;;;;5117957;28;20243;-93
2023/01/04 00:42:35;;;;;;;8.87;2.03;;;;;;;;;;5118108;28;20233;-94
2023/01/04 00:45:02;;;;;;;10.60;2.07;;;;;;;;;;5117369;28;20217;-93
2023/01/04 00:47:31;;;;;;;8.73;1.97;;;;;;;;;;5117751;28;20230;-93
2023/01/04 00:49:58;;;;;;;10.23;2.70;;;;;;;;;;5118138;28;20205;-93
2023/01/04 00:52:26;;;;;;;7.60;2.00;;;;;;;;;;5118010;28;20222;-93
2023/01/04 00:54:53;;;;;;;10.23;2.20;;;;;;;;;;5118051;28;20194;-93
2023/01/04 00:57:20;;;;;;;10.03;2.90;;;;;;;;;;5121881;28;20201;-95
2023/01/04 00:59:47;;;;;;;12.03;2.60;;;;;;;;;;5121998;28;20201;-94
2023/01/04 01:02:15;;;;;;;18.97;3.93;;;;;;;;;;5122628;28;20197;-94
2023/01/04 01:04:43;;;;;;;16.80;2.70;;;;;;;;;;5122688;28;20616;-95
2023/01/04 01:07:11;;;;;;;18.33;2.83;;;;;;;;;;5122412;28;20278;-94
2023/01/04 01:09:38;;;;;;;17.33;3.17;;;;;;;;;;5119599;28;20198;-95
2023/01/04 01:12:06;;;;;;;11.77;2.90;;;;;;;;;;5117735;28;20237;-96
2023/01/04 01:14:33;;;;;;;11.30;2.70;;;;;;;;;;5117492;28;20722;-94
2023/01/04 01:17:01;;;;;;;17.60;2.77;;;;;;;;;;5117304;28;20198;-93
2023/01/04 01:19:29;;;;;;;12.10;2.80;;;;;;;;;;5117687;28;20190;-94
2023/01/04 01:21:57;;;;;;;11.20;2.70;;;;;;;;;;5117640;28;20662;-95
2023/01/04 01:24:25;;;;;;;9.70;2.57;;;;;;;;;;5117540;28;20598;-94
2023/01/04 01:26:52;;;;;;;10.70;2.67;;;;;;;;;;5117350;28;20685;-93
2023/01/04 01:29:19;;;;;;;13.40;2.80;;;;;;;;;;5116993;28;20711;-94
2023/01/04 01:31:47;;;;;;;14.53;2.90;;;;;;;;;;5117271;28;20225;-96
2023/01/04 01:34:14;;;;;;;12.80;2.63;;;;;;;;;;5117680;28;20210;-94
2023/01/04 01:36:42;;;;;;;10.93;2.10;;;;;;;;;;5116325;28;20731;-93
2023/01/04 01:39:10;;;;;;;12.90;2.67;;;;;;;;;;5116993;28;20201;-95
2023/01/04 01:41:38;;;;;;;16.00;2.30;;;;;;;;;;5116940;28;20189;-95
2023/01/04 01:44:06;;;;;;;11.40;2.50;;;;;;;;;;5116790;28;20274;-95
2023/01/04 01:46:36;;;;;;;9.80;2.03;;;;;;;;;;5117113;28;20205;-95
2023/01/04 01:49:04;;;;;;;12.47;1.83;;;;;;;;;;5118537;28;20223;-96
2023/01/04 01:51:33;;;;;;;7.77;2.00;;;;;;;;;;5119420;28;20229;-96
2023/01/04 01:54:04;;;;;;;8.13;2.10;;;;;;;;;;5119306;28;20197;-95
2023/01/04 01:56:36;;;;;;;7.67;1.90;;;;;;;;;;5120373;28;20202;-95
2023/01/04 01:59:04;;;;;;;5.97;1.40;;;;;;;;;;5118353;28;20194;-95
2023/01/04 02:01:35;;;;;;;6.70;1.20;;;;;;;;;;5119442;28;20198;-96
2023/01/04 02:04:03;;;;;;;6.97;1.50;;;;;;;;;;5120275;28;20202;-94
2023/01/04 02:06:33;;;;;;;9.97;1.43;;;;;;;;;;5119316;28;20229;-93
2023/01/04 02:09:00;;;;;;;9.07;1.53;;;;;;;;;;5119090;28;20199;-94
2023/01/04 02:11:28;;;;;;;6.43;1.63;;;;;;;;;;5116541;28;20226;-94
2023/01/04 02:17:00;;;;;;;5.97;1.47;;;;;;;;;;5116511;28;20209;-93
2023/01/04 02:19:35;;;;;;;11.40;1.87;;;;;;;;;;5103783;28;20226;-91
2023/01/04 02:22:18;;;;;;;10.73;2.33;;;;;;;;;;5116276;28;20201;-92
2023/01/04 02:24:55;;;;;;;8.73;1.87;;;;;;;;;;5116329;28;20244;-93
2023/01/04 02:27:32;;;;;;;10.23;1.97;;;;;;;;;;5115829;28;20213;-93
2023/01/04 02:30:18;;;;;;;11.63;2.27;;;;;;;;;;5116021;28;20201;-94
2023/01/04 02:32:51;;;;;;;11.30;2.47;;;;;;;;;;5115961;28;20264;-93
2023/01/04 02:35:22;;;;;;;13.30;2.23;;;;;;;;;;5115825;28;20217;-93
2023/01/04 02:37:51;;;;;;;13.23;2.07;;;;;;;;;;5115810;28;20233;-93
2023/01/04 02:40:22;;;;;;;12.70;2.20;;;;;;;;;;5115681;28;20237;-93
2023/01/04 02:45:41;;;;;;;11.47;2.40;;;;;;;;;;5115162;28;20606;-93
2023/01/04 02:50:55;;;;;;;12.63;2.37;;;;;;;;;;5115685;28;20347;-94
2023/01/04 02:53:26;;;;;;;13.60;2.47;;;;;;;;;;5115122;28;20206;-94
2023/01/04 02:55:59;;;;;;;12.97;2.53;;;;;;;;;;5114977;28;20202;-93
2023/01/04 02:58:33;;;;;;;13.73;2.60;;;;;;;;;;5116926;28;20218;-94
2023/01/04 03:06:53;;;;;;;12.70;2.47;;;;;;;;;;5057061;28;20196;-93
2023/01/04 03:09:24;;;;;;;14.33;2.17;;;;;;;;;;5056133;28;20242;-94
2023/01/04 03:14:40;;;;;;;12.47;2.30;;;;;;;;;;5052556;28;20202;-94
2023/01/04 03:17:11;;;;;;;12.60;2.47;;;;;;;;;;5053066;28;20652;-94
2023/01/04 03:19:53;;;;;;;10.17;1.90;;;;;;;;;;5056904;28;20218;-95
2023/01/04 03:36:19;;;;;;;13.60;2.20;;;;;;;;;;5054397;28;20711;-92
2023/01/04 03:50:01;;;;;;;11.23;2.53;;;;;;;;;;5115773;28;20566;-94
2023/01/04 03:52:31;;;;;;;14.07;2.80;;;;;;;;;;5114153;28;20237;-94
2023/01/04 03:54:59;;;;;;;13.83;2.80;;;;;;;;;;5113877;28;20229;-94
2023/01/04 03:57:27;;;;;;;11.07;2.33;;;;;;;;;;5114587;28;20236;-94
2023/01/04 04:00:00;;;;;;;12.37;2.27;;;;;;;;;;5115250;28;20306;-94
2023/01/04 04:02:29;;;;;;;9.30;1.73;;;;;;;;;;5115122;28;20225;-93
2023/01/04 04:10:27;;;;;;;11.97;2.10;;;;;;;;;;5114632;28;20274;-94
2023/01/04 04:12:55;;;;;;;15.03;2.40;;;;;;;;;;5114550;28;20225;-93
2023/01/04 04:15:22;;;;;;;16.23;2.70;;;;;;;;;;5114282;28;20233;-94
2023/01/04 04:17:49;;;;;;;15.83;3.20;;;;;;;;;;5114112;28;20263;-94
2023/01/04 04:20:16;;;;;;;17.70;2.47;;;;;;;;;;5114307;28;20229;-94
2023/01/04 04:22:45;;;;;;;17.27;3.50;;;;;;;;;;5114200;28;20217;-94
2023/01/04 04:25:12;;;;;;;20.27;3.13;;;;;;;;;;5114222;28;20589;-95
2023/01/04 04:27:40;;;;;;;17.13;3.20;;;;;;;;;;5113845;28;20198;-95
2023/01/04 04:30:07;;;;;;;15.60;2.70;;;;;;;;;;5114073;28;20214;-94
2023/01/04 04:32:35;;;;;;;16.27;2.90;;;;;;;;;;5114313;28;20309;-93
2023/01/04 04:35:02;;;;;;;22.20;3.47;;;;;;;;;;5114671;28;20211;-93
2023/01/04 04:37:30;;;;;;;14.77;3.33;;;;;;;;;;5114226;28;20209;-95
2023/01/04 04:39:59;;;;;;;21.73;3.13;;;;;;;;;;5114939;28;20543;-95
2023/01/04 04:42:26;;;;;;;21.27;3.80;;;;;;;;;;5114441;28;20197;-95
2023/01/04 04:44:53;;;;;;;16.13;2.80;;;;;;;;;;5114644;28;20208;-94
2023/01/04 04:47:20;;;;;;;22.50;3.57;;;;;;;;;;5114815;28;20789;-94
2023/01/04 04:49:48;;;;;;;23.47;3.80;;;;;;;;;;5114900;28;20202;-94
2023/01/04 04:52:15;;;;;;;24.10;3.93;;;;;;;;;;5114301;28;20289;-94
2023/01/04 04:54:42;;;;;;;17.43;3.50;;;;;;;;;;5114699;28;20210;-94
2023/01/04 04:57:11;;;;;;;22.23;3.37;;;;;;;;;;5115940;28;20228;-94
2023/01/04 04:59:38;;;;;;;20.87;3.00;;;;;;;;;;5115457;28;20200;-95
2023/01/04 05:02:05;;;;;;;22.10;3.10;;;;;;;;;;5119189;28;20242;-95
2023/01/04 05:04:33;;;;;;;23.83;3.20;;;;;;;;;;5117966;28;20206;-95
2023/01/04 05:07:00;;;;;;;17.03;3.10;;;;;;;;;;5115815;28;20216;-94
2023/01/04 05:09:27;;;;;;;16.33;2.70;;;;;;;;;;5117160;28;20634;-94
2023/01/04 05:14:41;;;;;;;19.17;2.60;;;;;;;;;;5115146;28;20254;-93
2023/01/04 05:17:08;;;;;;;21.47;3.37;;;;;;;;;;5114254;28;20198;-93
2023/01/04 05:19:36;;;;;;;16.70;2.57;;;;;;;;;;5117625;28;20197;-94
2023/01/04 05:22:03;;;;;;;18.03;2.90;;;;;;;;;;5117330;28;20236;-93
2023/01/04 05:24:30;;;;;;;17.40;2.60;;;;;;;;;;5117498;28;20236;-94
2023/01/04 05:26:57;;;;;;;14.17;2.93;;;;;;;;;;5117807;28;20241;-94
2023/01/04 05:32:11;;;;;;;13.13;2.47;;;;;;;;;;5117029;28;20224;-95
2023/01/04 05:34:38;;;;;;;13.97;2.33;;;;;;;;;;5117287;28;20228;-93
2023/01/04 05:37:05;;;;;;;14.27;3.00;;;;;;;;;;5116929;28;20194;-94
2023/01/04 05:39:32;;;;;;;13.53;2.47;;;;;;;;;;5116966;28;20754;-94
2023/01/04 05:44:44;;;;;;;13.80;2.67;;;;;;;;;;5116804;28;20204;-94
2023/01/04 05:47:13;;;;;;;16.87;2.83;;;;;;;;;;5116786;28;20714;-94
2023/01/04 05:49:40;;;;;;;14.80;2.23;;;;;;;;;;5116690;28;20217;-93
2023/01/04 05:52:08;;;;;;;16.93;3.23;;;;;;;;;;5116780;28;20222;-94
2023/01/04 05:54:35;;;;;;;16.77;2.40;;;;;;;;;;5116066;28;20222;-94
2023/01/04 05:57:02;;;;;;;12.27;2.40;;;;;;;;;;5116583;28;20194;-94
2023/01/04 05:59:30;;;;;;;14.70;2.77;;;;;;;;;;5116979;28;20214;-96
2023/01/04 06:01:57;;;;;;;17.10;3.00;;;;;;;;;;5116342;28;20202;-95
2023/01/04 06:04:26;;;;;;;12.93;2.77;;;;;;;;;;5116260;28;20205;-93
2023/01/04 06:06:53;;;;;;;19.80;2.80;;;;;;;;;;5116837;28;20254;-92
2023/01/04 06:09:20;;;;;;;20.50;3.20;;;;;;;;;;5116594;28;20992;-93
2023/01/04 06:11:48;;;;;;;20.80;3.10;;;;;;;;;;5116471;28;20221;-94
2023/01/04 06:14:15;;;;;;;13.43;2.33;;;;;;;;;;5116278;28;20217;-95
2023/01/04 06:16:42;;;;;;;14.43;2.73;;;;;;;;;;5116496;28;20572;-93
2023/01/04 06:19:10;;;;;;;11.37;2.40;;;;;;;;;;5116182;28;20193;-96
2023/01/04 06:21:38;;;;;;;17.47;2.80;;;;;;;;;;5116304;28;20197;-93
2023/01/04 06:24:06;;;;;;;12.90;2.70;;;;;;;;;;5115876;28;20676;-93
2023/01/04 06:26:35;;;;;;;11.97;2.83;;;;;;;;;;5117253;28;20201;-96
2023/01/04 06:29:03;;;;;;;14.63;2.30;;;;;;;;;;5116766;28;20212;-91
2023/01/04 06:31:30;;;;;;;14.20;2.77;;;;;;;;;;5116663;28;20254;-94
2023/01/04 06:33:57;;;;;;;10.20;2.50;;;;;;;;;;5116801;28;20205;-94
2023/01/04 06:36:25;;;;;;;11.27;2.87;;;;;;;;;;5115848;28;20721;-94
2023/01/04 06:38:53;;;;;;;16.20;2.87;;;;;;;;;;5112689;28;20609;-92
2023/01/04 06:41:21;;;;;;;15.30;2.90;;;;;;;;;;5116367;28;20240;-92
2023/01/04 06:43:49;;;;;;;9.00;2.50;;;;;;;;;;5100512;28;20191;-93
2023/01/04 06:46:16;;;;;;;9.80;2.20;;;;;;;;;;5095742;28;20565;-90
2023/01/04 06:48:44;;;;;;;11.40;2.40;;;;;;;;;;5094875;28;20299;-94
2023/01/04 06:51:11;;;;;;;10.20;1.83;;;;;;;;;;5121314;27;20239;-91
2023/01/04 06:53:39;;;;;;;10.43;2.13;;;;;;;;;;5118784;27;20579;-88
2023/01/04 06:56:09;;;;;;;14.30;2.70;;;;;;;;;;5107204;28;20221;-88
2023/01/04 06:58:36;;;;;;;14.17;2.80;;;;;;;;;;5109377;28;20607;-88
2023/01/04 07:01:03;;;;;;;13.97;2.57;;;;;;;;;;5114163;28;20225;-86
2023/01/04 07:03:30;;;;;;;11.73;1.97;;;;;;;;;;5113683;28;20225;-87
2023/01/04 07:05:58;;;;;;;12.60;2.50;;;;;;;;;;5113430;28;20233;-87
2023/01/04 07:08:25;;;;;;;14.07;2.23;;;;;;;;;;5112962;28;20244;-87
2023/01/04 07:10:52;;;;;;;13.03;2.60;;;;;;;;;;5113266;28;20629;-87
2023/01/04 07:13:21;;;;;;;13.93;2.97;;;;;;;;;;5113252;28;20265;-86
2023/01/04 07:15:48;;;;;;;11.47;2.07;;;;;;;;;;5112587;28;20701;-87
2023/01/04 07:18:16;;;;;;;13.23;2.70;;;;;;;;;;5112952;28;20254;-85
2023/01/04 07:20:44;;;;;;;16.50;2.67;;;;;;;;;;5112868;28;20624;-86
2023/01/04 07:23:11;;;;;;;14.03;2.70;;;;;;;;;;5113045;28;20751;-87
2023/01/04 07:25:39;;;;;;;13.27;2.43;;;;;;;;;;5112890;28;20232;-88
2023/01/04 07:28:06;;;;;;;14.10;2.90;;;;;;;;;;5112521;28;20285;-87
2023/01/04 07:30:35;;;;;;;15.50;3.10;;;;;;;;;;5112582;28;20194;-86
2023/01/04 07:33:02;;;;;;;19.70;3.00;;;;;;;;;;5112253;28;20245;-88
2023/01/04 07:35:29;;;;;;;15.67;3.17;;;;;;;;;;5112835;28;20218;-88
2023/01/04 07:37:56;;;;;;;20.17;2.83;;;;;;;;;;5111817;28;20228;-89
2023/01/04 07:40:24;;;;;;;15.13;3.13;;;;;;;;;;5112647;28;20202;-86
2023/01/04 07:42:55;;;;;;;19.27;2.93;;;;;;;;;;5113129;28;20217;-85
2023/01/04 07:45:23;;;;;;;13.83;2.63;;;;;;;;;;5111778;28;20207;-86
2023/01/04 07:47:51;;;;;;;17.73;2.70;;;;;;;;;;5112161;28;20280;-88
2023/01/04 07:50:18;;;;;;;16.17;2.80;;;;;;;;;;5113040;28;20225;-88
2023/01/04 07:52:46;;;;;;;11.53;2.60;;;;;;;;;;5112848;28;20316;-88
2023/01/04 07:55:13;;;;;;;10.97;2.47;;;;;;;;;;5113670;28;20197;-89
2023/01/04 07:57:40;;;;;;;12.73;2.43;;;;;;;;;;5113357;28;20658;-85
2023/01/04 08:00:10;;;;;;;12.40;2.40;;;;;;;;;;5113398;28;20231;-93
2023/01/04 08:02:37;;;;;;;13.30;2.47;;;;;;;;;;5113958;28;20263;-94
2023/01/04 08:05:06;;;;;;;16.70;3.30;;;;;;;;;;5113915;28;20240;-89
2023/01/04 08:07:33;;;;;;;15.90;2.27;;;;;;;;;;5113937;28;20221;-90
2023/01/04 08:10:01;;;;;;;10.73;2.40;;;;;;;;;;5113897;28;20194;-89
2023/01/04 08:12:28;;;;;;;8.83;2.50;;;;;;;;;;5113408;28;20308;-90
2023/01/04 08:14:56;;;;;;;10.40;2.43;;;;;;;;;;5095425;28;20713;-90
2023/01/04 08:17:23;;;;;;;12.03;2.63;;;;;;;;;;5113528;28;20234;-90
2023/01/04 08:19:50;;;;;;;12.60;2.40;;;;;;;;;;5113899;28;20232;-91
2023/01/04 08:22:19;;;;;;;10.70;2.67;;;;;;;;;;5113850;28;20601;-90
2023/01/04 08:24:46;;;;;;;10.43;2.63;;;;;;;;;;5113393;28;20775;-91
2023/01/04 08:27:13;;;;;;;13.17;2.40;;;;;;;;;;5113664;28;20241;-90
2023/01/04 08:29:41;;;;;;;9.10;2.13;;;;;;;;;;5113693;28;20612;-89
2023/01/04 08:32:09;;;;;;;9.60;2.33;;;;;;;;;;5113349;28;20186;-93
2023/01/04 08:34:36;;;;;;;10.60;2.10;;;;;;;;;;5113718;28;20229;-93
2023/01/04 08:37:03;;;;;;;11.00;2.00;;;;;;;;;;5113490;28;20228;-93
2023/01/04 08:39:34;;;;;;;10.27;2.00;;;;;;;;;;5113907;28;20217;-91
2023/01/04 08:42:02;;;;;;;9.33;2.40;;;;;;;;;;5114096;28;20193;-95
2023/01/04 08:44:29;;;;;;;13.53;2.40;;;;;;;;;;5113557;28;20632;-93
2023/01/04 08:46:57;;;;;;;9.57;2.30;;;;;;;;;;5113976;28;20264;-92
2023/01/04 08:49:25;;;;;;;12.90;3.07;;;;;;;;;;5113329;28;20198;-93
2023/01/04 08:51:53;;;;;;;13.97;2.50;;;;;;;;;;5113880;28;20217;-93
2023/01/04 08:54:21;;;;;;;11.17;2.63;;;;;;;;;;5117420;28;20305;-92
2023/01/04 08:56:50;;;;;;;10.37;1.93;;;;;;;;;;5117248;28;20205;-90
2023/01/04 08:59:18;;;;;;;10.40;2.47;;;;;;;;;;5117275;28;20186;-91
2023/01/04 09:01:45;;;;;;;13.10;2.20;;;;;;;;;;5116681;28;20229;-92
2023/01/04 09:04:13;;;;;;;13.03;2.13;;;;;;;;;;5117708;28;20194;-92
2023/01/04 09:06:41;;;;;;;7.07;1.70;;;;;;;;;;5117300;28;20598;-92
2023/01/04 09:09:09;;;;;;;7.63;2.23;;;;;;;;;;5116919;28;20249;-91
2023/01/04 09:11:38;;;;;;;7.60;1.90;;;;;;;;;;5117434;28;20259;-92
2023/01/04 09:14:09;;;;;;;10.20;2.37;;;;;;;;;;5116702;28;20253;-93
2023/01/04 09:16:36;;;;;;;7.53;2.07;;;;;;;;;;5117731;28;20194;-92
2023/01/04 09:19:04;;;;;;;11.47;2.00;;;;;;;;;;5117627;28;20664;-93
2023/01/04 09:21:31;;;;;;;8.60;1.83;;;;;;;;;;5117934;28;20281;-93
2023/01/04 09:23:58;;;;;;;8.63;1.77;;;;;;;;;;5098654;28;20658;-90
2023/01/04 09:26:26;;;;;;;6.47;1.80;;;;;;;;;;5116534;28;20197;-89
2023/01/04 09:28:54;;;;;;;7.63;1.67;;;;;;;;;;5116615;28;20182;-90
2023/01/04 09:31:23;;;;;;;8.77;2.20;;;;;;;;;;5115953;28;20236;-91
2023/01/04 09:33:51;;;;;;;8.57;2.20;;;;;;;;;;5116701;28;20250;-91
2023/01/04 09:36:18;;;;;;;7.77;2.70;;;;;;;;;;5116436;28;20251;-91
2023/01/04 09:38:46;;;;;;;6.53;2.30;;;;;;;;;;5116593;28;20202;-90
2023/01/04 09:41:19;;;;;;;8.20;2.77;;;;;;;;;;5116799;28;20202;-90
2023/01/04 09:43:47;;;;;;;7.77;2.87;;;;;;;;;;5115928;28;20272;-89
2023/01/04 09:46:19;;;;;;;7.43;2.93;;;;;;;;;;5116442;28;20220;-90
2023/01/04 09:48:48;;;;;;;5.30;2.53;;;;;;;;;;5116141;28;20198;-91
2023/01/04 09:51:16;;;;;;;6.50;2.50;;;;;;;;;;5116532;28;20831;-91
2023/01/04 09:53:46;;;;;;;2.73;1.57;;;;;;;;;;5116268;28;20222;-91
2023/01/04 09:56:19;;;;;;;7.50;2.20;;;;;;;;;;5116395;28;20193;-92
2023/01/04 09:58:47;;;;;;;3.77;1.53;;;;;;;;;;5116000;28;20266;-92
2023/01/04 10:01:15;;;;;;;1.97;1.00;;;;;;;;;;5116286;28;20186;-92
2023/01/04 10:03:46;;;;;;;4.77;1.53;;;;;;;;;;5116103;28;20660;-91
2023/01/04 10:06:16;;;;;;;2.47;0.83;;;;;;;;;;5116176;28;20197;-91
2023/01/04 10:08:44;;;;;;;2.73;1.30;;;;;;;;;;5116082;28;20198;-89
2023/01/04 10:11:18;;;;;;;2.87;1.00;;;;;;;;;;5115764;28;20548;-90
2023/01/04 10:13:51;;;;;;;4.90;1.33;;;;;;;;;;5115407;28;20279;-91
2023/01/04 10:16:22;;;;;;;5.97;1.40;;;;;;;;;;5115898;28;20250;-90
2023/01/04 10:18:53;;;;;;;8.03;1.83;;;;;;;;;;5116041;28;20225;-88
2023/01/04 10:21:38;;;;;;;6.43;1.63;;;;;;;;;;5115373;28;20202;-91
2023/01/04 10:24:11;;;;;;;3.97;1.93;;;;;;;;;;5116117;28;20244;-90
2023/01/04 10:26:42;;;;;;;6.10;1.80;;;;;;;;;;5115308;28;20245;-92
2023/01/04 10:29:29;;;;;;;7.33;2.10;;;;;;;;;;5116151;28;20221;-90
2023/01/04 10:32:01;;;;;;;9.50;2.33;;;;;;;;;;5114248;28;20193;-90
2023/01/04 10:34:29;;;;;;;6.63;3.30;;;;;;;;;;5115346;28;20249;-92
2023/01/04 10:36:58;;;;;;;8.73;2.27;;;;;;;;;;5115210;28;20198;-89
2023/01/04 10:39:28;;;;;;;5.03;1.80;;;;;;;;;;5115275;28;20218;-91
2023/01/04 10:41:57;;;;;;;7.97;2.20;;;;;;;;;;5115758;28;20201;-91
2023/01/04 10:44:28;;;;;;;7.97;2.40;;;;;;;;;;5115539;28;20202;-89
2023/01/04 10:46:58;;;;;;;6.07;2.67;;;;;;;;;;5115052;28;20261;-90
2023/01/04 10:49:30;;;;;;;9.17;3.00;;;;;;;;;;5115599;28;20205;-90
2023/01/04 10:52:00;;;;;;;7.53;1.83;;;;;;;;;;5114908;28;20197;-90
2023/01/04 10:54:31;;;;;;;5.73;2.13;;;;;;;;;;5114530;28;20221;-90
2023/01/04 10:57:01;;;;;;;5.33;2.00;;;;;;;;;;5115581;28;20209;-92
2023/01/04 10:59:35;;;;;;;7.13;2.30;;;;;;;;;;5115229;28;20201;-91
2023/01/04 11:02:06;;;;;;;5.13;1.70;;;;;;;;;;5115240;28;20207;-90
2023/01/04 11:04:35;;;;;;;6.50;1.80;;;;;;;;;;5115315;28;20619;-92
2023/01/04 11:07:06;;;;;;;8.63;2.50;;;;;;;;;;5115082;28;20258;-92
2023/01/04 11:09:36;;;;;;;8.80;2.73;;;;;;;;;;5114363;28;20206;-92
2023/01/04 11:12:07;;;;;;;6.47;2.03;;;;;;;;;;5116290;28;20202;-91
2023/01/04 11:14:34;;;;;;;6.53;1.67;;;;;;;;;;5118191;28;20221;-91
2023/01/04 11:17:04;;;;;;;6.83;2.00;;;;;;;;;;5115926;28;20224;-90
2023/01/04 11:19:33;;;;;;;3.73;1.00;;;;;;;;;;5118022;28;20236;-92
2023/01/04 11:22:04;;;;;;;8.73;1.70;;;;;;;;;;5118720;28;20194;-92
2023/01/04 11:24:32;;;;;;;6.67;1.70;;;;;;;;;;5118113;28;20199;-90
2023/01/04 11:27:05;;;;;;;6.03;2.23;;;;;;;;;;5117308;28;20210;-93
2023/01/04 11:29:35;;;;;;;8.40;2.17;;;;;;;;;;5119141;28;20201;-94
2023/01/04 11:32:05;;;;;;;10.30;2.20;;;;;;;;;;5119870;28;20670;-93
2023/01/04 11:34:46;;;;;;;8.17;2.17;;;;;;;;;;5118782;28;20304;-92
2023/01/04 11:37:24;;;;;;;6.20;2.20;;;;;;;;;;5117813;28;20703;-89
2023/01/04 11:39:51;;;;;;;9.90;2.40;;;;;;;;;;5118828;28;20196;-93
2023/01/04 11:42:22;;;;;;;6.97;3.37;;;;;;;;;;5117842;28;20194;-93
2023/01/04 11:44:58;;;;;;;9.57;2.43;;;;;;;;;;5118565;28;20238;-89
2023/01/04 11:47:27;;;;;;;5.83;2.63;;;;;;;;;;5118374;28;20232;-90
2023/01/04 11:49:54;;;;;;;7.77;2.60;;;;;;;;;;5119301;28;20207;-90
2023/01/04 11:52:32;;;;;;;7.63;2.00;;;;;;;;;;5118146;28;20223;-90
2023/01/04 11:55:14;;;;;;;7.60;1.93;;;;;;;;;;5117899;28;20222;-88
2023/01/04 11:57:43;;;;;;;6.10;2.00;;;;;;;;;;5116720;28;20205;-90
2023/01/04 12:00:11;;;;;;;6.00;1.97;;;;;;;;;;5116220;28;20208;-89
2023/01/04 12:02:38;;;;;;;5.73;2.07;;;;;;;;;;5114163;28;20248;-87
2023/01/04 12:05:16;;;;;;;6.50;2.00;;;;;;;;;;5114722;28;20742;-87
2023/01/04 12:07:43;;;;;;;6.30;2.10;;;;;;;;;;5114322;28;20257;-87
2023/01/04 12:10:20;;;;;;;4.63;1.73;;;;;;;;;;5119029;28;20189;-88
2023/01/04 12:12:48;;;;;;;4.07;1.67;;;;;;;;;;5117026;28;20662;-91
2023/01/04 12:15:19;;;;;;;4.50;1.23;;;;;;;;;;5114549;28;20281;-88
2023/01/04 12:17:50;;;;;;;4.83;1.70;;;;;;;;;;5114513;28;20201;-89
2023/01/04 12:20:19;;;;;;;6.37;1.50;;;;;;;;;;5114788;28;20201;-89
2023/01/04 12:22:46;;;;;;;5.70;1.53;;;;;;;;;;5114646;28;20202;-90
2023/01/04 12:25:22;;;;;;;5.90;1.33;;;;;;;;;;5115002;28;20231;-89
2023/01/04 12:27:54;;;;;;;7.27;1.57;;;;;;;;;;5117921;28;20250;-90
2023/01/04 12:30:35;;;;;;;5.83;1.90;;;;;;;;;;5119014;28;20213;-88
2023/01/04 12:33:25;;;;;;;8.00;1.70;;;;;;;;;;5118947;28;20194;-89
2023/01/04 12:36:05;;;;;;;5.87;1.60;;;;;;;;;;5118301;28;20247;-90
2023/01/04 12:38:50;;;;;;;5.93;1.90;;;;;;;;;;5119059;28;20204;-89
2023/01/04 12:41:18;;;;;;;5.43;1.77;;;;;;;;;;5103899;28;20201;-89
2023/01/04 12:43:48;;;;;;;6.90;1.63;;;;;;;;;;5118387;28;20232;-89
2023/01/04 12:49:37;;;;;;;8.23;2.77;;;;;;;;;;5114269;27;20204;-89
2023/01/04 12:52:22;;;;;;;5.23;2.47;;;;;;;;;;5113355;28;20640;-88
2023/01/04 12:54:51;;;;;;;3.77;1.80;;;;;;;;;;5100400;28;20255;-88
2023/01/04 12:57:25;;;;;;;3.47;1.63;;;;;;;;;;5112227;28;20204;-89
2023/01/04 12:59:58;;;;;;;4.70;1.53;;;;;;;;;;5112090;28;20270;-87
2023/01/04 13:02:26;;;;;;;3.87;1.83;;;;;;;;;;5110632;27;20198;-90
2023/01/04 13:04:54;;;;;;;3.90;2.10;;;;;;;;;;5116928;28;20831;-88
2023/01/04 13:07:26;;;;;;;5.93;2.40;;;;;;;;;;5112675;28;20205;-91
2023/01/04 13:09:55;;;;;;;4.30;1.93;;;;;;;;;;5117065;28;20225;-91
2023/01/04 13:12:41;;;;;;;3.67;2.50;;;;;;;;;;5114894;28;20198;-89
2023/01/04 13:15:13;;;;;;;3.83;2.20;;;;;;;;;;5110509;28;20748;-91
2023/01/04 13:17:40;;;;;;;5.20;2.53;;;;;;;;;;5107322;28;20216;-91
2023/01/04 13:20:14;;;;;;;3.23;2.00;;;;;;;;;;5115121;28;20194;-90
2023/01/04 13:22:46;;;;;;;2.70;1.50;;;;;;;;;;5113310;28;20254;-90
2023/01/04 13:25:15;;;;;;;5.07;1.73;;;;;;;;;;5116582;28;20201;-92
2023/01/04 13:27:55;;;;;;;3.23;2.20;;;;;;;;;;5113709;28;20280;-93
2023/01/04 13:30:33;;;;;;;4.63;2.57;;;;;;;;;;5111005;28;20255;-93
2023/01/04 13:33:08;;;;;;;4.63;1.87;;;;;;;;;;5108767;27;20202;-91
2023/01/04 13:35:36;;;;;;;3.23;1.80;;;;;;;;;;5117421;28;20681;-91
2023/01/04 13:38:04;;;;;;;6.60;2.80;;;;;;;;;;5117273;28;20250;-92
2023/01/04 13:40:34;;;;;;;4.83;3.00;;;;;;;;;;5111313;28;20635;-92
2023/01/04 13:43:14;;;;;;;4.37;3.40;;;;;;;;;;5115288;28;20198;-92
2023/01/04 13:45:48;;;;;;;2.73;2.03;;;;;;;;;;5117536;28;20197;-93
2023/01/04 13:48:18;;;;;;;3.53;1.97;;;;;;;;;;5116746;28;20224;-91
2023/01/04 13:50:46;;;;;;;4.20;2.40;;;;;;;;;;5112305;28;20251;-90
2023/01/04 13:53:20;;;;;;;4.20;2.10;;;;;;;;;;5117881;28;20209;-89
2023/01/04 13:55:50;;;;;;;4.73;2.80;;;;;;;;;;5118840;28;20315;-88
2023/01/04 13:58:18;;;;;;;7.00;3.73;;;;;;;;;;5120549;28;20628;-89
2023/01/04 14:00:50;;;;;;;4.03;2.47;;;;;;;;;;5121572;28;20190;-88
2023/01/04 14:03:29;;;;;;;5.77;3.73;;;;;;;;;;5119075;28;20206;-90
2023/01/04 14:05:58;;;;;;;5.83;3.73;;;;;;;;;;5118495;28;20206;-89
2023/01/04 14:08:30;;;;;;;2.73;1.60;;;;;;;;;;5112799;28;20194;-88
2023/01/04 14:10:58;;;;;;;2.47;1.83;;;;;;;;;;5117944;28;20201;-90
2023/01/04 14:13:25;;;;;;;4.87;2.50;;;;;;;;;;5117263;28;20193;-89
2023/01/04 14:16:09;;;;;;;2.57;1.80;;;;;;;;;;5116374;28;20221;-89
2023/01/04 14:18:36;;;;;;;6.30;2.43;;;;;;;;;;5116492;28;20638;-89
2023/01/04 14:21:03;;;;;;;2.80;2.47;;;;;;;;;;5116712;28;20842;-90
2023/01/04 14:23:37;;;;;;;3.93;2.03;;;;;;;;;;5112299;27;20202;-88
2023/01/04 14:26:05;;;;;;;4.27;2.10;;;;;;;;;;5111186;28;20285;-90
2023/01/04 14:28:35;;;;;;;3.10;2.17;;;;;;;;;;5116909;28;20205;-89
2023/01/04 14:31:25;;;;;;;3.20;1.97;;;;;;;;;;5116622;28;20272;-90
2023/01/04 14:33:53;;;;;;;3.70;1.97;;;;;;;;;;5106369;28;20202;-91
2023/01/04 14:36:25;;;;;;;3.00;1.70;;;;;;;;;;5115404;28;20218;-90
2023/01/04 14:38:57;;;;;;;2.17;1.50;;;;;;;;;;5116379;28;20205;-90
2023/01/04 14:41:26;;;;;;;3.53;2.20;;;;;;;;;;5115378;27;20223;-90
2023/01/04 14:44:03;;;;;;;3.10;2.43;;;;;;;;;;5115003;28;20193;-89
2023/01/04 14:46:32;;;;;;;3.53;2.23;;;;;;;;;;5112176;28;20622;-88
2023/01/04 14:49:00;;;;;;;3.33;1.70;;;;;;;;;;5114447;28;20206;-87
2023/01/04 14:51:31;;;;;;;4.03;1.63;;;;;;;;;;5115350;28;20669;-89
2023/01/04 14:53:58;;;;;;;3.93;1.80;;;;;;;;;;5114956;28;20198;-89
2023/01/04 14:56:25;;;;;;;4.40;2.80;;;;;;;;;;5114542;28;20233;-90
2023/01/04 14:58:52;;;;;;;3.43;1.70;;;;;;;;;;5113575;28;20240;-90
2023/01/04 15:01:20;;;;;;;1.30;1.00;;;;;;;;;;5116666;28;20259;-87
2023/01/04 15:03:48;;;;;;;2.47;1.27;;;;;;;;;;5114016;28;20202;-89
2023/01/04 15:06:16;;;;;;;2.77;1.30;;;;;;;;;;5115080;28;20205;-90
2023/01/04 15:08:44;;;;;;;2.77;1.10;;;;;;;;;;5113979;28;20224;-89
2023/01/04 15:11:13;;;;;;;2.47;1.13;;;;;;;;;;5113616;28;20229;-90
2023/01/04 15:13:40;;;;;;;4.97;1.40;;;;;;;;;;5113110;28;20194;-89
2023/01/04 15:16:08;;;;;;;2.27;1.10;;;;;;;;;;5112458;28;20561;-85
2023/01/04 15:18:35;;;;;;;1.90;0.90;;;;;;;;;;5114406;27;20205;-87
2023/01/04 15:21:04;;;;;;;2.13;1.30;;;;;;;;;;5113594;28;20198;-87
2023/01/04 15:23:32;;;;;;;2.07;1.30;;;;;;;;;;5106816;28;20818;-86
2023/01/04 15:26:00;;;;;;;3.73;1.10;;;;;;;;;;5110665;28;20210;-89
2023/01/04 15:28:27;;;;;;;2.73;1.40;;;;;;;;;;5110893;28;20201;-87
2023/01/04 15:30:55;;;;;;;3.97;1.20;;;;;;;;;;5113684;28;20226;-87
2023/01/04 15:33:22;;;;;;;3.57;1.60;;;;;;;;;;5110273;28;20198;-88
2023/01/04 15:35:58;;;;;;;1.80;1.37;;;;;;;;;;5109066;28;20785;-88
2023/01/04 15:38:26;;;;;;;3.10;1.80;;;;;;;;;;5112137;28;20253;-87
2023/01/04 15:41:00;;;;;;;4.23;2.60;;;;;;;;;;5112323;28;20247;-88
2023/01/04 15:43:26;;;;;;;4.03;1.77;;;;;;;;;;5113724;28;20197;-87
2023/01/04 15:45:53;;;;;;;4.20;1.80;;;;;;;;;;5113786;28;20281;-84
2023/01/04 15:48:21;;;;;;;2.20;1.67;;;;;;;;;;5113281;28;20221;-89